Time;durP1;ratioP1;P1;durP2;ratioP2;P2;SDS_P1;SDS_P2;PMS_P1;PMS_P2;Temp;Humidity;BMP_temperature;BMP_pressure;BME280_temperature;BME280_humidity;BME280_pressure;Samples;Min_cycle;Max_cycle;Signal;HPM_P1;HPM_P2
2022/02/08 00:00:01;;;;;;;9.70;3.33;;;2.50;99.90;;;;;;4992479;28;20188;-58
2022/02/08 00:02:29;;;;;;;4.97;2.50;;;2.60;99.90;;;;;;4992112;28;20240;-55
2022/02/08 00:04:56;;;;;;;6.00;2.67;;;2.60;99.90;;;;;;4992338;28;20192;-55
2022/02/08 00:07:22;;;;;;;4.23;2.43;;;2.60;99.90;;;;;;4992402;28;20550;-54
2022/02/08 00:09:47;;;;;;;7.17;2.60;;;2.60;99.90;;;;;;4992073;28;20182;-52
2022/02/08 00:12:13;;;;;;;5.17;2.47;;;2.60;99.90;;;;;;4966963;28;20662;-52
2022/02/08 00:14:38;;;;;;;6.23;2.63;;;2.60;99.90;;;;;;4985974;28;20324;-55
2022/02/08 00:17:04;;;;;;;7.57;2.93;;;2.60;99.90;;;;;;4992381;28;20177;-51
2022/02/08 00:19:29;;;;;;;5.87;3.10;;;2.60;99.90;;;;;;4987868;28;20177;-49
2022/02/08 00:21:55;;;;;;;8.67;3.20;;;2.50;99.90;;;;;;4985542;28;20704;-49
2022/02/08 00:24:21;;;;;;;5.20;2.33;;;2.60;99.90;;;;;;4972532;28;20219;-52
2022/02/08 00:26:46;;;;;;;8.27;2.90;;;2.60;99.90;;;;;;4982978;28;20251;-55
2022/02/08 00:29:13;;;;;;;5.57;2.87;;;2.60;99.90;;;;;;4983043;28;20182;-50
2022/02/08 00:31:38;;;;;;;6.50;2.80;;;2.60;99.90;;;;;;4996634;28;20199;-56
2022/02/08 00:34:04;;;;;;;6.13;2.80;;;2.60;99.90;;;;;;5011951;28;20652;-54
2022/02/08 00:36:30;;;;;;;6.20;2.63;;;2.60;99.90;;;;;;5011412;28;20263;-51
2022/02/08 00:38:55;;;;;;;6.37;3.03;;;2.50;99.90;;;;;;5000761;28;20188;-52
2022/02/08 00:41:24;;;;;;;7.17;2.90;;;2.50;99.90;;;;;;4991775;28;20248;-53
2022/02/08 00:43:58;;;;;;;6.80;3.10;;;2.50;99.90;;;;;;4995846;28;20594;-51
2022/02/08 00:46:35;;;;;;;6.77;2.60;;;2.60;99.90;;;;;;4995560;28;20260;-54
2022/02/08 00:49:03;;;;;;;6.93;2.93;;;2.60;99.90;;;;;;4994819;28;20676;-50
2022/02/08 00:51:38;;;;;;;11.77;3.03;;;2.70;99.90;;;;;;4995707;28;20613;-53
2022/02/08 00:54:04;;;;;;;6.90;2.80;;;2.60;99.90;;;;;;4995814;28;20193;-52
2022/02/08 00:56:30;;;;;;;8.67;3.20;;;2.60;99.90;;;;;;4995588;28;20252;-58
2022/02/08 00:58:56;;;;;;;11.07;3.33;;;2.60;99.90;;;;;;4995504;28;20185;-50
2022/02/08 01:01:21;;;;;;;6.87;2.83;;;2.50;99.90;;;;;;4995682;28;20205;-51
2022/02/08 01:03:47;;;;;;;5.03;2.33;;;2.50;99.90;;;;;;4995342;28;20197;-54
2022/02/08 01:06:12;;;;;;;5.37;2.47;;;2.60;99.90;;;;;;4995527;28;20184;-50
2022/02/08 01:08:40;;;;;;;6.67;2.90;;;2.60;99.90;;;;;;4995000;28;20173;-50
2022/02/08 01:11:09;;;;;;;6.53;2.50;;;2.70;99.90;;;;;;4995457;28;20200;-56
2022/02/08 01:13:37;;;;;;;8.07;2.80;;;3.00;99.90;;;;;;4995361;28;20404;-51
2022/02/08 01:16:02;;;;;;;7.97;2.90;;;2.80;99.90;;;;;;5007257;28;20208;-55
2022/02/08 01:18:30;;;;;;;7.23;3.20;;;2.80;99.90;;;;;;4995322;28;20228;-53
2022/02/08 01:20:56;;;;;;;5.87;2.53;;;2.80;99.90;;;;;;5001655;28;20254;-55
2022/02/08 01:23:21;;;;;;;7.40;2.60;;;2.70;99.90;;;;;;5006907;28;20209;-55
2022/02/08 01:25:52;;;;;;;6.27;2.63;;;2.70;99.90;;;;;;4993123;28;20283;-53
2022/02/08 01:28:35;;;;;;;8.77;2.80;;;2.80;99.90;;;;;;4991216;28;20182;-54
2022/02/08 01:31:04;;;;;;;7.77;2.83;;;2.80;99.90;;;;;;4975704;28;20177;-54
2022/02/08 01:39:25;;;;;;;3.63;2.20;;;2.80;99.90;;;;;;4975772;28;20185;-55
2022/02/08 01:41:52;;;;;;;8.77;2.60;;;2.90;99.90;;;;;;4970451;28;20304;-51
2022/02/08 01:44:28;;;;;;;10.10;2.90;;;2.90;99.90;;;;;;4975486;28;20193;-58
2022/02/08 01:51:55;;;;;;;10.00;2.50;;;2.90;99.90;;;;;;4975206;28;20182;-53
2022/02/08 01:54:21;;;;;;;7.13;2.73;;;2.90;99.90;;;;;;4974850;28;20225;-55
2022/02/08 01:56:48;;;;;;;12.83;2.67;;;2.70;99.90;;;;;;4975079;28;20559;-55
2022/02/08 01:59:15;;;;;;;8.77;2.60;;;2.70;99.90;;;;;;4974939;28;20182;-51
2022/02/08 02:01:41;;;;;;;6.60;2.30;;;2.60;99.90;;;;;;4975179;28;20253;-55
2022/02/08 02:04:06;;;;;;;7.77;2.30;;;2.60;99.90;;;;;;4974854;28;20218;-57
2022/02/08 02:06:33;;;;;;;7.07;2.30;;;2.60;99.90;;;;;;4975037;28;20178;-56
2022/02/08 02:08:58;;;;;;;4.60;2.13;;;2.60;99.90;;;;;;4974737;28;20170;-54
2022/02/08 02:11:24;;;;;;;6.17;2.37;;;2.60;99.90;;;;;;4975232;28;20188;-52
2022/02/08 02:13:51;;;;;;;6.10;2.30;;;2.60;99.90;;;;;;4974817;28;20268;-55
2022/02/08 02:16:27;;;;;;;5.00;2.40;;;2.70;99.90;;;;;;4975002;28;20181;-55
2022/02/08 02:18:52;;;;;;;7.40;2.53;;;2.60;99.90;;;;;;4974647;28;20173;-52
2022/02/08 02:21:18;;;;;;;6.93;2.37;;;2.70;99.90;;;;;;4974867;28;20571;-55
2022/02/08 02:23:46;;;;;;;9.47;2.63;;;2.70;99.90;;;;;;4974735;28;20525;-52
2022/02/08 02:26:11;;;;;;;4.37;2.37;;;2.70;99.90;;;;;;4974479;28;20225;-54
2022/02/08 02:28:37;;;;;;;8.70;2.60;;;2.80;99.90;;;;;;4974551;28;20170;-54
2022/02/08 02:31:03;;;;;;;5.50;2.33;;;2.90;99.90;;;;;;4974436;28;20201;-53
2022/02/08 02:33:28;;;;;;;6.63;2.67;;;2.90;99.90;;;;;;4974472;28;20190;-57
2022/02/08 02:35:56;;;;;;;5.47;2.30;;;3.10;99.90;;;;;;4974333;28;20787;-50
2022/02/08 02:38:24;;;;;;;7.10;2.37;;;3.10;99.90;;;;;;4974667;28;20170;-50
2022/02/08 02:40:49;;;;;;;6.93;2.50;;;3.00;99.90;;;;;;4974194;28;20184;-54
2022/02/08 02:43:15;;;;;;;4.73;2.40;;;2.90;99.90;;;;;;4974968;28;20177;-54
2022/02/08 02:45:41;;;;;;;7.10;2.47;;;3.00;99.90;;;;;;4973979;28;20551;-55
2022/02/08 02:48:06;;;;;;;4.43;2.20;;;2.90;99.90;;;;;;4974248;28;20194;-51
2022/02/08 02:50:32;;;;;;;6.03;2.33;;;2.90;99.90;;;;;;4974338;28;20173;-53
2022/02/08 02:52:58;;;;;;;6.30;2.43;;;2.90;99.90;;;;;;4974075;28;20178;-55
2022/02/08 02:55:23;;;;;;;4.30;2.20;;;3.00;99.90;;;;;;4974024;28;20257;-56
2022/02/08 02:57:53;;;;;;;6.43;2.60;;;3.00;99.90;;;;;;4974250;28;20181;-53
2022/02/08 03:00:37;;;;;;;7.30;2.60;;;3.10;99.90;;;;;;4974055;28;20181;-50
2022/02/08 03:03:16;;;;;;;4.73;2.17;;;3.10;99.90;;;;;;4975294;28;20208;-52
2022/02/08 03:19:19;;;;;;;6.73;2.40;;;3.30;99.90;;;;;;4973515;28;20221;-52
2022/02/08 03:21:44;;;;;;;4.73;2.33;;;3.30;99.90;;;;;;4973647;28;20205;-50
2022/02/08 03:24:10;;;;;;;4.57;2.20;;;3.30;99.90;;;;;;4973445;28;20216;-51
2022/02/08 03:26:35;;;;;;;5.47;2.37;;;3.30;99.90;;;;;;4973453;28;20182;-50
2022/02/08 03:29:01;;;;;;;5.47;2.27;;;3.20;99.90;;;;;;4973188;28;20200;-50
2022/02/08 03:31:26;;;;;;;4.73;2.57;;;3.20;99.90;;;;;;4973694;28;20291;-54
2022/02/08 03:33:52;;;;;;;5.37;2.37;;;3.30;99.90;;;;;;4973300;28;20278;-54
2022/02/08 03:36:17;;;;;;;4.97;2.20;;;3.20;99.90;;;;;;4973245;28;20252;-50
2022/02/08 03:38:47;;;;;;;4.73;2.20;;;3.10;99.90;;;;;;4973369;28;20714;-55
2022/02/08 03:41:12;;;;;;;7.10;2.53;;;3.10;99.90;;;;;;4973154;28;20204;-51
2022/02/08 03:43:41;;;;;;;8.97;2.70;;;3.20;99.90;;;;;;4973230;28;20170;-54
2022/02/08 03:46:12;;;;;;;4.57;2.10;;;3.20;99.90;;;;;;4973090;28;20166;-54
2022/02/08 03:48:40;;;;;;;6.40;2.53;;;3.20;99.90;;;;;;4973335;28;20173;-51
2022/02/08 03:51:15;;;;;;;6.90;2.33;;;3.30;99.90;;;;;;4973011;28;20200;-52
2022/02/08 03:53:43;;;;;;;6.70;2.50;;;3.20;99.90;;;;;;4973151;28;20173;-54
2022/02/08 03:56:13;;;;;;;4.67;2.07;;;3.10;99.90;;;;;;4972849;28;20166;-51
2022/02/08 03:58:39;;;;;;;5.73;2.37;;;3.00;99.90;;;;;;4973199;28;20182;-54
2022/02/08 04:04:13;;;;;;;9.97;2.40;;;3.20;99.90;;;;;;4973393;28;20233;-51
2022/02/08 04:06:36;;;;;;;4.13;2.07;;;3.30;99.90;;;;;;4972621;28;20177;-50
2022/02/08 04:09:04;;;;;;;4.10;2.07;;;3.30;99.90;;;;;;4972898;28;20588;-54
2022/02/08 04:11:34;;;;;;;6.10;2.27;;;3.20;99.90;;;;;;4973085;28;20574;-50
2022/02/08 04:14:17;;;;;;;5.20;2.50;;;3.30;99.90;;;;;;4972840;28;20793;-50
2022/02/08 04:16:42;;;;;;;5.80;2.47;;;3.20;99.90;;;;;;4975070;28;20252;-50
2022/02/08 04:19:24;;;;;;;6.73;2.50;;;3.20;99.90;;;;;;4976672;28;20166;-57
2022/02/08 04:33:57;;;;;;;5.73;2.50;;;3.30;99.90;;;;;;4976828;28;20297;-51
2022/02/08 04:35:58;;;;;;;7.93;2.63;;;3.20;99.90;;;;;;4962479;28;20209;-51
2022/02/08 04:38:37;;;;;;;6.37;2.33;;;3.20;99.90;;;;;;4976760;28;20186;-55
2022/02/08 04:41:13;;;;;;;9.13;2.50;;;3.10;99.90;;;;;;4976275;28;20181;-52
2022/02/08 04:46:25;;;;;;;5.00;2.23;;;3.00;99.90;;;;;;4976524;28;20170;-50
2022/02/08 04:48:54;;;;;;;9.27;2.53;;;3.10;99.90;;;;;;4976523;28;20181;-50
2022/02/08 04:51:27;;;;;;;5.57;2.10;;;3.10;99.90;;;;;;4976265;28;20178;-55
2022/02/08 04:54:01;;;;;;;6.63;2.33;;;3.10;99.90;;;;;;4976390;28;20690;-55
2022/02/08 04:59:16;;;;;;;6.67;2.87;;;3.10;99.90;;;;;;4976221;28;20174;-50
2022/02/08 05:02:03;;;;;;;5.37;2.53;;;3.00;99.90;;;;;;4976157;28;20672;-54
2022/02/08 05:45:00;;;;;;;4.70;1.80;;;2.70;99.90;;;;;;4975454;28;20586;-56
2022/02/08 05:47:26;;;;;;;7.13;2.40;;;2.80;99.90;;;;;;4975550;28;20261;-54
2022/02/08 05:50:06;;;;;;;4.47;1.90;;;2.80;99.90;;;;;;4974831;28;20391;-50
2022/02/08 05:54:57;;;;;;;5.70;2.20;;;2.80;99.90;;;;;;4974979;28;20206;-50
2022/02/08 05:57:23;;;;;;;6.57;2.20;;;2.90;99.90;;;;;;4981288;28;20606;-49
2022/02/08 05:59:51;;;;;;;6.07;2.23;;;2.80;99.90;;;;;;4984969;28;20181;-55
2022/02/08 06:02:18;;;;;;;8.23;2.57;;;2.80;99.90;;;;;;4983196;28;20741;-49
2022/02/08 06:04:44;;;;;;;4.67;2.20;;;2.70;99.90;;;;;;4984010;28;20547;-50
2022/02/08 06:07:14;;;;;;;5.90;2.50;;;2.80;99.90;;;;;;4984975;28;20516;-49
2022/02/08 06:09:39;;;;;;;5.83;2.10;;;2.80;99.90;;;;;;4983573;28;20266;-51
2022/02/08 06:12:05;;;;;;;4.67;2.20;;;2.80;99.90;;;;;;4983832;28;20269;-48
2022/02/08 06:14:33;;;;;;;5.47;2.27;;;2.80;99.90;;;;;;4985072;28;20228;-50
2022/02/08 06:16:58;;;;;;;2.93;1.67;;;2.80;99.90;;;;;;4983314;28;20216;-47
2022/02/08 06:19:24;;;;;;;4.80;2.40;;;2.80;99.90;;;;;;4983823;28;20647;-53
2022/02/08 06:21:49;;;;;;;5.57;2.20;;;2.80;99.90;;;;;;4967310;28;20205;-47
2022/02/08 06:24:15;;;;;;;4.53;2.17;;;2.80;99.90;;;;;;4982932;28;20225;-51
2022/02/08 06:26:41;;;;;;;6.03;2.23;;;2.80;99.90;;;;;;4979086;28;20188;-51
2022/02/08 06:29:16;;;;;;;6.73;2.33;;;2.80;99.90;;;;;;4974167;28;20181;-50
2022/02/08 06:31:44;;;;;;;5.43;2.30;;;2.80;99.90;;;;;;4974629;28;20223;-54
2022/02/08 06:34:12;;;;;;;3.30;2.17;;;2.70;99.90;;;;;;4974276;28;20220;-51
2022/02/08 06:36:37;;;;;;;6.93;2.13;;;2.60;99.90;;;;;;4974629;28;20312;-54
2022/02/08 06:39:03;;;;;;;5.00;2.57;;;2.70;99.90;;;;;;4974114;28;20276;-53
2022/02/08 06:41:29;;;;;;;4.77;2.33;;;2.70;99.90;;;;;;4977783;28;20198;-51
2022/02/08 06:43:54;;;;;;;4.17;2.00;;;2.60;99.90;;;;;;4992678;28;20248;-52
2022/02/08 06:46:20;;;;;;;5.50;2.60;;;2.60;99.90;;;;;;4987318;28;20180;-51
2022/02/08 06:48:46;;;;;;;3.90;2.10;;;2.60;99.90;;;;;;4973672;28;20182;-48
2022/02/08 06:51:11;;;;;;;5.50;2.30;;;2.60;99.90;;;;;;4974029;28;20170;-53
2022/02/08 06:53:37;;;;;;;4.17;2.20;;;2.70;99.90;;;;;;4956888;28;20666;-51
2022/02/08 06:56:03;;;;;;;5.73;2.63;;;2.90;99.90;;;;;;4983063;28;20181;-55
2022/02/08 06:58:47;;;;;;;5.30;2.67;;;3.10;99.90;;;;;;4987352;28;20656;-53
2022/02/08 07:01:12;;;;;;;5.47;2.40;;;3.20;99.90;;;;;;4972793;28;20180;-49
2022/02/08 07:03:38;;;;;;;7.63;2.90;;;3.20;99.90;;;;;;4981641;28;20177;-54
2022/02/08 07:06:06;;;;;;;5.57;2.50;;;3.10;99.90;;;;;;4984078;28;20554;-54
2022/02/08 07:08:31;;;;;;;6.43;2.73;;;3.10;99.90;;;;;;4981157;28;20299;-54
2022/02/08 07:10:57;;;;;;;4.70;2.67;;;3.10;99.90;;;;;;4961751;28;20285;-51
2022/02/08 07:13:23;;;;;;;4.23;2.47;;;3.00;99.90;;;;;;4956169;28;20190;-50
2022/02/08 07:15:48;;;;;;;5.80;2.83;;;3.00;99.90;;;;;;4992094;28;20609;-49
2022/02/08 07:18:14;;;;;;;6.23;2.40;;;3.00;99.90;;;;;;4992588;28;20178;-54
2022/02/08 07:20:40;;;;;;;5.43;2.33;;;3.00;99.90;;;;;;4992924;28;20185;-52
2022/02/08 07:23:06;;;;;;;4.63;2.27;;;3.00;99.90;;;;;;4992790;28;20263;-50
2022/02/08 07:25:32;;;;;;;7.00;2.57;;;3.00;99.90;;;;;;4981628;28;20198;-54
2022/02/08 07:27:57;;;;;;;5.23;2.40;;;3.00;99.90;;;;;;4986841;28;20181;-53
2022/02/08 07:30:23;;;;;;;6.03;2.50;;;2.90;99.90;;;;;;4975482;28;20193;-51
2022/02/08 07:32:52;;;;;;;4.53;1.77;;;2.90;99.90;;;;;;4975554;28;20192;-54
2022/02/08 07:36:00;;;;;;;5.80;2.40;;;2.90;99.90;;;;;;4992461;28;20189;-50
2022/02/08 07:38:18;;;;;;;3.93;2.10;;;2.90;99.90;;;;;;4989613;28;20263;-55
2022/02/08 07:43:10;;;;;;;4.50;2.07;;;3.00;99.90;;;;;;4992907;28;20213;-52
2022/02/08 07:45:35;;;;;;;6.57;2.83;;;3.00;99.90;;;;;;4974907;28;20597;-50
2022/02/08 07:48:01;;;;;;;4.33;2.50;;;3.00;99.90;;;;;;4992620;28;20207;-51
2022/02/08 07:50:27;;;;;;;4.47;2.30;;;3.00;99.90;;;;;;4992132;28;20177;-53
2022/02/08 07:52:53;;;;;;;4.17;2.13;;;3.00;99.90;;;;;;4992786;28;20177;-50
2022/02/08 07:55:21;;;;;;;5.00;2.50;;;2.90;99.90;;;;;;4992228;28;20684;-50
2022/02/08 07:57:47;;;;;;;4.47;2.30;;;2.90;99.90;;;;;;4992649;28;20669;-56
2022/02/08 08:00:13;;;;;;;6.20;2.10;;;2.90;99.90;;;;;;4992189;28;20196;-55
2022/02/08 08:02:39;;;;;;;3.80;2.10;;;3.00;99.90;;;;;;4975361;28;20208;-53
2022/02/08 08:05:06;;;;;;;4.77;2.10;;;3.00;99.90;;;;;;4992262;28;20726;-52
2022/02/08 08:07:32;;;;;;;4.90;2.13;;;3.00;99.90;;;;;;4992375;28;20173;-52
2022/02/08 08:10:01;;;;;;;6.07;2.00;;;3.00;99.90;;;;;;4992250;28;20180;-54
2022/02/08 08:12:27;;;;;;;8.70;2.77;;;3.00;99.90;;;;;;4975503;28;20633;-54
2022/02/08 08:14:53;;;;;;;6.00;2.10;;;3.00;99.90;;;;;;4974987;28;20203;-53
2022/02/08 08:19:50;;;;;;;5.77;2.20;;;3.10;99.90;;;;;;4992276;28;20219;-52
2022/02/08 08:22:19;;;;;;;4.77;2.03;;;3.10;99.90;;;;;;4992118;28;20271;-50
2022/02/08 08:24:46;;;;;;;3.80;1.73;;;3.10;99.90;;;;;;4975225;28;20240;-52
2022/02/08 08:27:12;;;;;;;4.13;1.90;;;3.10;99.90;;;;;;4974993;28;20177;-53
2022/02/08 08:29:38;;;;;;;5.27;2.30;;;3.10;99.90;;;;;;4992314;28;20172;-50
2022/02/08 08:32:04;;;;;;;3.77;1.80;;;3.10;99.90;;;;;;4960326;28;20184;-53
2022/02/08 08:34:30;;;;;;;6.57;2.17;;;3.20;99.90;;;;;;4976152;28;20232;-58
2022/02/08 08:36:56;;;;;;;5.93;2.10;;;3.30;99.90;;;;;;4993748;28;20639;-50
2022/02/08 08:39:26;;;;;;;4.13;2.03;;;3.40;99.90;;;;;;4992642;28;20244;-54
2022/02/08 08:42:10;;;;;;;4.27;2.03;;;3.40;99.90;;;;;;4992115;28;20201;-53
2022/02/08 08:50:15;;;;;;;4.73;1.97;;;3.30;99.90;;;;;;4991736;28;20649;-50
2022/02/08 08:52:43;;;;;;;6.67;2.33;;;3.30;99.90;;;;;;4992223;28;20173;-53
2022/02/08 08:55:11;;;;;;;4.30;2.00;;;3.30;99.90;;;;;;4991674;28;20193;-52
2022/02/08 08:57:37;;;;;;;5.07;2.20;;;3.30;99.90;;;;;;4991986;28;20256;-50
2022/02/08 09:00:08;;;;;;;4.80;2.10;;;3.40;99.90;;;;;;4974428;28;20177;-54
2022/02/08 09:02:34;;;;;;;6.83;2.20;;;3.30;99.90;;;;;;4992143;28;20205;-52
2022/02/08 09:05:01;;;;;;;3.77;2.53;;;3.40;99.90;;;;;;4995354;28;20216;-52
2022/02/08 09:07:27;;;;;;;7.23;2.30;;;3.40;99.90;;;;;;4995705;28;20162;-56
2022/02/08 09:09:58;;;;;;;5.17;1.77;;;3.50;99.90;;;;;;4995285;28;20188;-52
2022/02/08 09:12:49;;;;;;;3.90;1.87;;;3.60;99.90;;;;;;4996925;28;20243;-54
2022/02/08 09:28:41;;;;;;;4.10;2.20;;;3.90;99.90;;;;;;4954096;29;20174;-52
2022/02/08 09:31:13;;;;;;;5.07;2.13;;;3.80;99.90;;;;;;4953916;29;20174;-55
2022/02/08 09:33:39;;;;;;;4.40;2.10;;;3.90;99.90;;;;;;4954049;29;20226;-49
2022/02/08 09:36:05;;;;;;;6.37;2.30;;;3.90;99.90;;;;;;4954011;29;20205;-56
2022/02/08 09:38:31;;;;;;;3.43;1.80;;;4.00;99.90;;;;;;4960682;28;20182;-53
2022/02/08 09:41:00;;;;;;;2.93;1.83;;;4.10;99.90;;;;;;4973393;28;20687;-53
2022/02/08 09:43:28;;;;;;;7.87;2.60;;;4.10;99.90;;;;;;4951610;28;20210;-52
2022/02/08 09:45:57;;;;;;;4.30;2.07;;;4.00;99.90;;;;;;4941254;29;20593;-53
2022/02/08 09:48:29;;;;;;;3.40;1.80;;;4.10;99.90;;;;;;4957786;28;20320;-51
2022/02/08 09:50:56;;;;;;;5.53;2.00;;;4.10;99.90;;;;;;4994952;28;20265;-51
2022/02/08 09:53:31;;;;;;;6.20;2.00;;;4.10;99.90;;;;;;4977464;28;20700;-51
2022/02/08 09:55:58;;;;;;;4.03;1.90;;;3.90;99.90;;;;;;4978835;28;20654;-51
2022/02/08 09:58:23;;;;;;;4.97;1.90;;;3.90;99.90;;;;;;4977250;28;20653;-54
2022/02/08 10:00:49;;;;;;;5.97;2.10;;;3.90;99.90;;;;;;4994751;28;20195;-51
2022/02/08 10:03:17;;;;;;;4.90;2.00;;;3.90;99.90;;;;;;4977501;28;20282;-52
2022/02/08 10:05:51;;;;;;;4.70;2.10;;;3.90;99.90;;;;;;4994499;28;20197;-52
2022/02/08 10:08:17;;;;;;;6.30;2.20;;;3.90;99.90;;;;;;4978487;28;20251;-54
2022/02/08 10:10:43;;;;;;;4.00;2.00;;;3.80;99.90;;;;;;4982178;28;20214;-52
2022/02/08 10:13:58;;;;;;;6.63;2.30;;;3.90;99.90;;;;;;4976591;28;20184;-50
2022/02/08 10:19:49;;;;;;;4.03;1.93;;;3.90;99.90;;;;;;4985118;28;20595;-51
2022/02/08 10:22:08;;;;;;;3.70;1.83;;;4.00;99.90;;;;;;4969361;28;20202;-49
2022/02/08 10:24:38;;;;;;;5.17;1.93;;;4.10;99.90;;;;;;4966011;28;20209;-53
2022/02/08 10:27:37;;;;;;;4.57;1.97;;;4.30;99.90;;;;;;4968658;28;20549;-49
2022/02/08 10:30:45;;;;;;;3.27;1.60;;;4.30;99.90;;;;;;4983581;28;20252;-50
2022/02/08 10:38:38;;;;;;;6.77;2.63;;;4.30;99.90;;;;;;4970262;28;20268;-52
2022/02/08 10:41:21;;;;;;;5.47;1.67;;;4.40;99.90;;;;;;4984544;28;20174;-53
2022/02/08 10:43:58;;;;;;;4.13;1.90;;;4.60;99.90;;;;;;4984361;28;20205;-49
2022/02/08 10:46:24;;;;;;;4.70;2.20;;;4.80;99.90;;;;;;4984179;28;20173;-50
2022/02/08 10:49:04;;;;;;;6.10;2.23;;;4.60;99.90;;;;;;4964810;28;20180;-52
2022/02/08 10:51:35;;;;;;;5.23;2.10;;;4.40;99.90;;;;;;4965105;28;20206;-52
2022/02/08 10:54:08;;;;;;;2.97;1.90;;;4.40;99.90;;;;;;4982306;28;20280;-50
2022/02/08 10:56:36;;;;;;;6.53;2.43;;;4.60;99.90;;;;;;4966365;28;20300;-51
2022/02/08 11:01:45;;;;;;;6.17;2.47;;;4.60;99.90;;;;;;4986521;28;20203;-53
2022/02/08 11:04:17;;;;;;;5.37;2.10;;;4.40;99.90;;;;;;4988309;28;20220;-53
2022/02/08 11:06:51;;;;;;;8.20;2.23;;;4.30;99.90;;;;;;4985894;28;20185;-51
2022/02/08 11:20:38;;;;;;;8.60;2.80;;;4.40;99.90;;;;;;4963741;28;20185;-52
2022/02/08 11:23:24;;;;;;;2.67;1.80;;;4.40;99.90;;;;;;4967626;28;20198;-55
2022/02/08 11:25:52;;;;;;;6.13;2.00;;;4.50;99.90;;;;;;4982579;28;20211;-53
2022/02/08 11:28:43;;;;;;;5.23;2.20;;;4.60;99.90;;;;;;4982776;28;20220;-51
2022/02/08 11:47:27;;;;;;;7.33;2.63;;;4.50;99.90;;;;;;4982081;28;20174;-50
2022/02/08 11:52:33;;;;;;;4.13;2.13;;;4.60;99.90;;;;;;4982684;28;20655;-52
2022/02/08 12:07:34;;;;;;;7.57;2.73;;;4.70;99.90;;;;;;4983387;28;20316;-50
2022/02/08 12:10:14;;;;;;;5.90;2.67;;;4.90;99.90;;;;;;4981661;28;20662;-52
2022/02/08 12:30:05;;;;;;;5.87;2.50;;;5.90;99.90;;;;;;4982659;28;20212;-50
2022/02/08 12:48:47;;;;;;;4.30;2.10;;;5.80;99.90;;;;;;4986434;28;20196;-49
2022/02/08 12:48:54;;;;;;;4.43;2.40;;;6.10;99.90;;;;;;4986190;28;20179;-55
2022/02/08 12:57:04;;;;;;;4.70;2.50;;;6.20;99.90;;;;;;4985699;28;20661;-53
2022/02/08 14:07:43;;;;;;;3.73;2.00;;;7.70;99.90;;;;;;4983177;28;20178;-53
2022/02/08 14:10:45;;;;;;;4.47;2.50;;;7.60;99.90;;;;;;4984055;28;20178;-50
2022/02/08 14:29:51;;;;;;;4.43;2.17;;;6.90;99.90;;;;;;4969549;28;20189;-54
2022/02/08 14:32:31;;;;;;;6.03;2.43;;;6.80;99.90;;;;;;4984627;28;20181;-55
2022/02/08 15:09:59;;;;;;;4.93;2.50;;;6.40;99.90;;;;;;4991748;28;20196;-52
2022/02/08 15:12:28;;;;;;;6.00;2.77;;;6.30;99.90;;;;;;4993178;28;20169;-51
2022/02/08 15:15:02;;;;;;;5.40;2.50;;;6.20;99.90;;;;;;4991494;28;20798;-51
2022/02/08 15:17:28;;;;;;;4.43;2.23;;;6.30;99.90;;;;;;4993236;28;20228;-53
2022/02/08 15:19:55;;;;;;;3.73;2.17;;;6.20;99.90;;;;;;4992868;28;20173;-52
2022/02/08 15:22:20;;;;;;;3.90;2.03;;;6.20;99.90;;;;;;4993214;28;20197;-58
2022/02/08 15:24:47;;;;;;;4.23;2.07;;;6.20;99.90;;;;;;4992868;28;20678;-50
2022/02/08 15:27:14;;;;;;;6.80;2.50;;;6.40;99.90;;;;;;4993171;28;20558;-52
2022/02/08 15:29:41;;;;;;;4.97;2.30;;;6.50;99.90;;;;;;4992619;28;20177;-51
2022/02/08 15:32:13;;;;;;;5.70;2.07;;;6.60;99.90;;;;;;4993281;28;20665;-50
2022/02/08 15:34:39;;;;;;;4.67;2.43;;;6.60;99.90;;;;;;4992718;28;20678;-50
2022/02/08 15:37:04;;;;;;;5.63;2.47;;;6.50;99.90;;;;;;4992971;28;20180;-51
2022/02/08 15:39:30;;;;;;;4.40;2.13;;;6.50;99.90;;;;;;4992715;28;20177;-54
2022/02/08 15:41:55;;;;;;;4.00;2.20;;;6.40;99.90;;;;;;4992458;28;20255;-51
2022/02/08 15:44:24;;;;;;;3.97;2.27;;;6.30;99.90;;;;;;4992608;28;20558;-52
2022/02/08 15:46:51;;;;;;;4.53;2.10;;;6.20;99.90;;;;;;4992537;28;20176;-51
2022/02/08 15:49:17;;;;;;;5.03;2.40;;;6.20;99.90;;;;;;4992549;28;20180;-51
2022/02/08 15:51:48;;;;;;;3.57;2.07;;;6.10;99.90;;;;;;4992489;28;20181;-57
2022/02/08 16:07:19;;;;;;;2.97;2.20;;;6.20;99.90;;;;;;4968221;28;20184;-54
2022/02/08 16:23:01;;;;;;;4.97;2.43;;;6.10;99.90;;;;;;4983398;28;20295;-57
2022/02/08 16:54:40;;;;;;;3.20;2.23;;;6.50;99.90;;;;;;4992108;28;20201;-55
2022/02/08 16:57:11;;;;;;;2.73;2.20;;;6.60;99.90;;;;;;4990950;28;20184;-55
2022/02/08 16:59:39;;;;;;;3.40;2.20;;;6.70;99.90;;;;;;4991895;28;20204;-53
2022/02/08 17:02:07;;;;;;;4.60;2.87;;;6.90;99.90;;;;;;4991903;28;20263;-55
2022/02/08 17:04:35;;;;;;;4.53;2.37;;;7.10;99.90;;;;;;4991790;28;20621;-53
2022/02/08 17:07:01;;;;;;;3.83;2.40;;;7.30;99.90;;;;;;4991718;28;20585;-53
2022/02/08 17:14:31;;;;;;;8.97;5.60;;;7.50;99.90;;;;;;4991675;28;20271;-55
2022/02/08 17:46:57;;;;;;;8.37;6.60;;;7.50;99.90;;;;;;4985784;28;20400;-53
2022/02/08 17:49:22;;;;;;;7.70;5.30;;;7.40;99.90;;;;;;4985026;28;20185;-54
2022/02/08 17:51:48;;;;;;;7.87;4.70;;;7.40;99.90;;;;;;4983398;28;20186;-58
2022/02/08 17:54:14;;;;;;;9.20;5.03;;;7.40;99.90;;;;;;4984077;28;20712;-50
2022/02/08 17:56:40;;;;;;;7.37;4.60;;;7.40;99.90;;;;;;4986398;28;20185;-50
2022/02/08 17:59:06;;;;;;;5.47;3.73;;;7.40;99.90;;;;;;4984042;28;20174;-50
2022/02/08 18:01:31;;;;;;;5.90;3.63;;;7.50;99.90;;;;;;4986243;28;20189;-53
2022/02/08 18:03:57;;;;;;;6.83;2.97;;;7.40;99.90;;;;;;4959928;28;20193;-55
2022/02/08 18:06:22;;;;;;;7.23;3.57;;;7.30;99.90;;;;;;4974954;28;20174;-54
2022/02/08 18:08:48;;;;;;;6.67;3.80;;;7.20;99.90;;;;;;4974904;28;20188;-51
2022/02/08 18:11:13;;;;;;;7.80;3.37;;;7.10;99.90;;;;;;4975966;28;20193;-54
2022/02/08 18:13:42;;;;;;;6.37;3.63;;;7.00;99.90;;;;;;4958475;28;20322;-56
2022/02/08 18:16:07;;;;;;;6.70;3.80;;;6.90;99.90;;;;;;4958704;28;20182;-50
2022/02/08 18:18:39;;;;;;;5.60;3.43;;;6.90;99.90;;;;;;4974638;28;20632;-56
2022/02/08 18:21:42;;;;;;;7.23;3.83;;;6.90;99.90;;;;;;4975136;28;20234;-53
2022/02/08 19:11:52;;;;;;;9.30;5.60;;;6.70;99.90;;;;;;4973896;28;20177;-52
2022/02/08 19:22:27;;;;;;;7.73;5.37;;;7.00;99.90;;;;;;4894969;29;20300;-54
2022/02/08 19:24:54;;;;;;;11.23;6.10;;;7.00;99.90;;;;;;4894681;29;20629;-54
2022/02/08 19:27:20;;;;;;;7.53;5.93;;;7.00;99.90;;;;;;4895123;29;20236;-53
2022/02/08 19:29:47;;;;;;;7.30;5.93;;;6.90;99.90;;;;;;4894253;29;20654;-55
2022/02/08 19:32:12;;;;;;;11.87;6.80;;;7.00;99.90;;;;;;4899414;29;20248;-53
2022/02/08 19:34:41;;;;;;;11.73;8.50;;;7.00;99.90;;;;;;4908464;29;20207;-55
2022/02/08 19:37:08;;;;;;;10.13;7.27;;;6.90;99.90;;;;;;4910353;29;20188;-53
2022/02/08 19:39:35;;;;;;;9.13;6.57;;;6.90;99.90;;;;;;4910196;29;20753;-56
2022/02/08 19:42:01;;;;;;;10.50;7.50;;;6.90;99.90;;;;;;4906658;29;20292;-52
2022/02/08 19:44:27;;;;;;;10.37;7.77;;;7.00;99.90;;;;;;4910242;29;20286;-55
2022/02/08 19:46:56;;;;;;;10.63;6.80;;;7.10;99.90;;;;;;4907769;29;20191;-55
2022/02/08 19:49:22;;;;;;;6.87;5.00;;;7.10;99.90;;;;;;4906650;29;20260;-55
2022/02/08 19:51:47;;;;;;;6.93;5.40;;;7.10;99.90;;;;;;4910187;29;20192;-55
2022/02/08 19:54:18;;;;;;;8.17;7.03;;;7.10;99.90;;;;;;4905448;29;20211;-55
2022/02/08 19:56:59;;;;;;;9.00;5.40;;;7.20;99.90;;;;;;4909481;29;20183;-53
2022/02/08 19:59:34;;;;;;;7.60;5.40;;;7.20;99.90;;;;;;4998627;28;20554;-52
2022/02/08 20:02:03;;;;;;;6.60;5.23;;;7.20;99.90;;;;;;4985518;28;20202;-53
2022/02/08 20:04:32;;;;;;;6.90;5.37;;;7.10;99.90;;;;;;4987612;28;20236;-55
2022/02/08 20:06:58;;;;;;;6.30;4.10;;;7.00;99.90;;;;;;4976872;28;20640;-52
2022/02/08 20:09:25;;;;;;;9.93;5.87;;;6.90;99.90;;;;;;4983038;28;20181;-57
2022/02/08 20:11:51;;;;;;;6.57;3.60;;;6.70;99.90;;;;;;4985142;28;20221;-54
2022/02/08 20:14:17;;;;;;;5.43;3.87;;;6.60;99.90;;;;;;4985714;28;20197;-57
2022/02/08 20:16:43;;;;;;;7.37;4.30;;;6.40;99.90;;;;;;4970148;28;20235;-52
2022/02/08 20:19:10;;;;;;;5.03;3.23;;;6.40;99.90;;;;;;4984186;28;20188;-55
2022/02/08 20:21:36;;;;;;;6.33;3.87;;;6.20;99.90;;;;;;4990579;28;20657;-53
2022/02/08 20:24:05;;;;;;;8.80;5.50;;;6.20;99.90;;;;;;5008347;28;20242;-55
2022/02/08 20:29:20;;;;;;;15.13;10.67;;;6.40;99.90;;;;;;4990848;28;20238;-52
2022/02/08 20:31:47;;;;;;;16.23;13.07;;;6.60;99.90;;;;;;4968703;28;20173;-54
2022/02/08 20:34:17;;;;;;;15.10;10.47;;;6.80;99.90;;;;;;5002408;28;20208;-52
2022/02/08 20:36:44;;;;;;;11.10;7.20;;;7.00;99.90;;;;;;4995180;28;20320;-56
2022/02/08 20:39:10;;;;;;;9.33;6.43;;;7.10;99.90;;;;;;4968053;28;20181;-55
2022/02/08 20:41:35;;;;;;;9.00;5.07;;;7.20;99.90;;;;;;4982668;28;20169;-54
2022/02/08 20:44:02;;;;;;;7.07;5.43;;;7.30;99.90;;;;;;4974878;28;20193;-55
2022/02/08 20:46:28;;;;;;;9.77;5.93;;;7.40;99.90;;;;;;4980806;28;20539;-56
2022/02/08 20:48:55;;;;;;;27.77;19.10;;;7.50;99.90;;;;;;4986870;28;20278;-57
2022/02/08 20:51:27;;;;;;;9.63;6.30;;;7.50;99.90;;;;;;4996776;28;20165;-55
2022/02/08 20:53:54;;;;;;;8.00;4.00;;;7.50;99.90;;;;;;5002407;28;20228;-55